עמוד ראשי
METAR-TAF:

METAR-TAF

שדות תעופה :

NWS Office

מג'ורו, איי מרשל

קו רוחב: 07-05N, קו אורך: 171-12E, גובה: 4מטר

תצפית מזג אוויר נוכחית

הדו"ח נערך לפני 1 שעות ו 9דקות, בשעה 10:51 UTC
רוח 7קשר מכיוון מזרח/צפון-מזרח
טמפרטורת 29 צלסיוס
לחות 79%
לחץ 1011 hPa
ראות: 24.1קילומטר
מעט עננים בגובה 1500רגל
עננים פזורים בגובה 5000רגל
עננים פזורים בגובה 12000רגל
מעונן בגובה 30000רגל

METAR: PKMR 151051Z 07007KT 15SM FEW015 SCT050 SCT120 OVC300 29/25 A2985 RMK SLP112 T02850253

זמן: 00:00 (12:00 UTC)


TAF: חסר

תצפיות ותחזיות מזג אוויר לגבי יותר מ- 4,000 שדות תעופה ברחבי העולם. דוחות METAR ו- TAF.

התחנות הזמינות מסומנות בנקודות צהובות ואדומות על גבי המפה.

העבר את העכבר לנקודה הצבעונית על מנת לראות את שם התחנה.

לאחר מכן, לחץ כדי לראות את תוכן ואת תחזיות מזג האוויר.

כדי לשנות את המפה: לחץ על הכפתורים הירוקים עם הפלוס השחור כדי להתקרב; על הכפתור הירוק עם המקף כדי להתרחק; או בחיצים הירוקים למפות סמוכות.


METAR-TAF: